• Join FlightAware (Why Join?)
  • Login
  • US Flag 
08:07PM EDT


 

Airport Tracker/Info


-or-


 

Live Flight TrackerFlight Track Log ✈ UAL5915 ✈ 12-Apr-2013 ✈ KTUL - KIAD

Flight Track Log - Related Links

Times and Time Zones

All times are in EDT time to prevent confusion due to time zone crossing. See the UAL5915 flight status page for this flight to view local times or setup timezone preferences in your user account.

Time Position Orientation Groundspeed Altitude Reporting Facility
EDT Latitude Longitude Course Direction KTS MPH feet Rate Location/Type
01:37PM 36.1861 -95.9783 171° South 195 224 3,800  Level Kansas City Center
01:38PM 36.1372 -95.9692 171° South 273 314 5,200 2,100 Climbing Kansas City Center
01:39PM 36.1211 -95.8808 103° East 311 358 7,500 2,460 Climbing Kansas City Center
01:40PM 36.1106 -95.7786 97° East 304 350 10,000 1,860 Climbing Kansas City Center
01:41PM 36.0994 -95.6669 97° East 320 368 11,400 1,380 Climbing Kansas City Center
01:42PM 36.0847 -95.5383 98° East 368 423 12,900 1,620 Climbing Kansas City Center
01:43PM 36.0867 -95.3769 89° East 392 451 14,800 1,500 Climbing Kansas City Center
01:44PM 36.0925 -95.2506 87° East 405 466 16,100 1,680 Climbing Kansas City Center
01:45PM 36.0981 -95.0928 87° East 413 475 18,300 2,160 Climbing Kansas City Center
01:45PM 36.1019 -95.0425 85° East 404 465 19,000 2,280 Climbing Memphis Center
01:46PM 36.1069 -94.9067 87° East 404 465 21,300 1,860 Climbing Memphis Center
01:47PM 36.1119 -94.7658 87° East 399 459 22,800 1,560 Climbing Memphis Center
01:48PM 36.1169 -94.6272 87° East 404 465 24,500 1,740 Climbing Memphis Center
01:49PM 36.1217 -94.4861 88° East 404 465 26,300 1,500 Climbing Memphis Center
01:50PM 36.1283 -94.3450 87° East 404 465 27,500 1,140 Climbing Memphis Center
01:51PM 36.1308 -94.1989 89° East 410 472 28,600 1,020 Climbing Memphis Center
01:52PM 36.1364 -94.0833 87° East 416 479 29,600 1,020 Climbing Memphis Center
01:53PM 36.1372 -93.9139 90° East 436 502 30,700 1,020 Climbing Memphis Center
01:54PM 36.1414 -93.7572 88° East 443 510 31,700 960 Climbing Memphis Center
01:55PM 36.1456 -93.6006 88° East 448 516 32,700 960 Climbing Memphis Center
01:56PM 36.1519 -93.4364 87° East 455 524 33,700 960 Climbing Memphis Center
01:57PM 36.1558 -93.2747 88° East 462 532 34,700 600 Climbing Memphis Center
01:58PM 36.1597 -93.1050 88° East 473 544 35,000 120 Climbing Memphis Center
01:59PM 36.1653 -92.9381 88° East 481 554 35,000  Level Memphis Center
02:00PM 36.1669 -92.7556 89° East 507 583 35,000  Level Memphis Center
02:01PM 36.1725 -92.5708 88° East 522 601 35,000  Level Memphis Center
02:02PM 36.1756 -92.3856 89° East 533 613 35,000  Level Memphis Center
02:03PM 36.1783 -92.1981 89° East 538 619 35,000  Level Memphis Center
02:04PM 36.1750 -91.9922 91° East 538 619 35,000  Level Memphis Center
02:05PM 36.1794 -91.8019 88° East 538 619 35,000  Level Memphis Center
02:06PM 36.1817 -91.6117 89° East 543 625 35,000  Level Memphis Center
02:07PM 36.1833 -91.4189 89° East 548 631 35,000  Level Memphis Center
02:08PM 36.1869 -91.2289 89° East 548 631 35,000  Level Memphis Center
02:09PM 36.1881 -91.0358 90° East 548 631 35,000  Level Memphis Center
02:10PM 36.1889 -90.8456 90° East 548 631 35,000  Level Memphis Center
02:11PM 36.1894 -90.6553 90° East 554 638 35,000  Level Memphis Center
02:12PM 36.1919 -90.4597 89° East 554 638 35,000 60 Level Memphis Center
02:13PM 36.1897 -90.2644 91° East 554 638 35,200 600 Climbing Memphis Center
02:14PM 36.1894 -90.0742 90° East 554 638 36,200 840 Climbing Memphis Center
02:15PM 36.1889 -89.8889 90° East 548 631 36,900 360 Climbing Memphis Center
02:16PM 36.1881 -89.6986 90° East 548 631 37,000  Climbing Memphis Center
02:17PM 36.1869 -89.5108 90° East 548 631 37,000  Level Memphis Center
02:18PM 36.1833 -89.3206 91° East 548 631 37,000  Level Memphis Center
02:19PM 36.1839 -89.1331 90° East 548 631 37,000  Level Memphis Center
02:20PM 36.1839 -88.9453 90° East 548 631 37,000  Level Memphis Center
02:21PM 36.1817 -88.7600 91° East 548 631 37,000  Level Memphis Center
02:22PM 36.1792 -88.5725 91° East 543 625 37,000  Level Memphis Center
02:23PM 36.1764 -88.3900 91° East 533 613 37,000  Level Memphis Center
02:24PM 36.1753 -88.2022 90° East 533 613 37,000  Level Memphis Center
02:25PM 36.1700 -88.0250 92° East 526 605 37,000  Level Memphis Center
02:26PM 36.1642 -87.8375 92° East 526 605 37,000  Level Memphis Center
02:27PM 36.1625 -87.6578 91° East 529 609 37,000  Level Memphis Center
02:28PM 36.1561 -87.4703 92° East 529 609 37,000  Level Memphis Center
02:29PM 36.1519 -87.2878 92° East 535 616 37,000  Level Memphis Center
02:30PM 36.1472 -87.1056 92° East 535 616 37,000  Level Memphis Center
02:31PM 36.1403 -86.9233 93° East 530 610 37,000  Level Memphis Center
02:32PM 36.1369 -86.7358 91° East 537 618 37,000  Level Memphis Center
02:33PM 36.1922 -86.5636 68° East 532 612 37,000  Level Memphis Center
02:34PM 36.2706 -86.4031 59° Northeast 532 612 37,000  Level Memphis Center
02:37PM 36.4650 -86.0019 59° Northeast 548 631 37,000  Level Indianapolis Center
02:38PM 36.5436 -85.8356 60° Northeast 553 636 37,000  Level Indianapolis Center
02:39PM 36.6206 -85.6719 60° Northeast 546 628 37,000  Level Indianapolis Center
02:40PM 36.6975 -85.5061 60° Northeast 548 631 37,000  Level Indianapolis Center
02:41PM 36.7758 -85.3397 60° Northeast 552 635 37,000  Level Indianapolis Center
02:42PM 36.8675 -85.1400 60° Northeast 550 633 37,000  Level Indianapolis Center
02:43PM 36.9447 -84.9742 60° Northeast 549 632 37,000  Level Indianapolis Center
02:44PM 37.0225 -84.8033 60° Northeast 561 646 37,000  Level Indianapolis Center
02:45PM 37.1058 -84.6219 60° Northeast 556 640 37,000  Level Indianapolis Center
02:46PM 37.1828 -84.4506 61° Northeast 560 644 37,000  Level Indianapolis Center
02:47PM 37.2589 -84.2811 61° Northeast 556 640 37,000  Level Indianapolis Center
02:48PM 37.3375 -84.1117 60° Northeast 560 644 37,000  Level Indianapolis Center
02:49PM 37.4125 -83.9419 61° Northeast 560 644 37,000  Level Indianapolis Center
02:50PM 37.4886 -83.7714 61° Northeast 558 642 37,000  Level Indianapolis Center
02:51PM 37.5772 -83.5706 61° Northeast 560 644 37,000  Level Indianapolis Center
02:52PM 37.6528 -83.3972 61° Northeast 560 644 37,000  Level Indianapolis Center
02:53PM 37.7286 -83.2261 61° Northeast 555 639 37,000  Level Indianapolis Center
02:54PM 37.8053 -83.0492 61° Northeast 568 654 37,000  Level Indianapolis Center
02:55PM 37.8783 -82.8775 62° Northeast 556 640 37,000  Level Indianapolis Center
02:56PM 37.9542 -82.7064 61° Northeast 557 641 37,000  Level Indianapolis Center
02:57PM 38.0392 -82.5058 62° Northeast 552 635 37,000  Level Indianapolis Center
02:58PM 38.0844 -82.3186 73° East 555 639 37,000  Level Indianapolis Center
03:00PM 38.1111 -82.1475 79° East 548 631 37,000  Level Indianapolis Center
03:01PM 38.1414 -81.9586 78° East 550 633 37,000 -420 Level Indianapolis Center
03:02PM 38.1750 -81.7297 79° East 552 635 36,200 -780 Descending Indianapolis Center
03:03PM 38.2039 -81.5369 79° East 559 643 35,500 -780 Descending Indianapolis Center
03:04PM 38.2317 -81.3461 79° East 556 640 34,600 -960 Descending Indianapolis Center
03:05PM 38.2586 -81.1617 79° East 539 620 33,600 -780 Descending Indianapolis Center
03:06PM 38.2861 -80.9750 79° East 540 621 33,000 -300 Descending Indianapolis Center
03:07PM 38.3119 -80.7628 81° East 538 619 33,000  Level Washington Center
03:08PM 38.3069 -80.5903 92° East 538 619 33,000 -300 Level Washington Center
03:09PM 38.3144 -80.4028 87° East 538 619 32,500 -720 Descending Washington Center
03:10PM 38.3469 -80.2144 78° East 533 613 31,600 -960 Descending Washington Center
03:11PM 38.3853 -80.0311 75° East 538 619 30,600 -960 Descending Washington Center
03:12PM 38.4275 -79.8456 74° East 538 619 29,700 -1,800 Descending Washington Center
03:13PM 38.4739 -79.6492 73° East 543 625 27,000 -2,400 Descending Washington Center
03:14PM 38.5150 -79.4792 73° East 519 597 25,000 -1,500 Descending Washington Center
03:15PM 38.5450 -79.3214 76° East 483 556 24,000 -960 Descending Washington Center
03:16PM 38.5708 -79.1581 79° East 466 536 23,100 -1,500 Descending Washington Center
03:17PM 38.5936 -79.0183 78° East 460 529 21,000 -2,400 Descending Washington Center
03:18PM 38.6211 -78.8494 78° East 444 511 18,400 -2,400 Descending Washington Center
03:19PM 38.6497 -78.7206 74° East 437 503 16,200 -2,220 Descending Washington Center
03:20PM 38.6847 -78.5678 74° East 408 470 14,000 -2,160 Descending Washington Center
03:21PM 38.7147 -78.4467 72° East 396 456 11,900 -1,920 Descending Washington Center
03:22PM 38.7592 -78.3392 62° Northeast 363 418 10,200 -1,380 Descending Washington Center
03:23PM 38.8258 -78.2456 48° Northeast 330 380 9,200 -960 Descending Washington Center
03:24PM 38.8672 -78.1592 58° Northeast 311 358 8,300 -1,140 Descending Washington Center
03:25PM 38.8947 -78.0481 72° East 295 339 7,000 -1,140 Descending Washington Center
03:26PM 38.9150 -77.9608 73° East 283 326 6,100 -540 Descending Washington Center
03:27PM 38.9444 -77.8494 71° East 283 326 6,000 -60 Descending Washington Center
03:28PM 38.9625 -77.7619 75° East 283 326 6,000  Level Washington Center
03:29PM 38.9583 -77.6550 93° East 271 312 6,000  Level Washington Center
03:30PM 38.9989 -77.5894 51° Northeast 247 284 6,000 -300 Level Washington Center
03:31PM 39.0833 -77.5667 12° North 248 285 5,400 -900 Descending Potomac TRACON
03:32PM 39.1333 -77.5333 27° Northeast 266 306 4,200 -1,260 Descending Potomac TRACON
03:33PM 39.1167 -77.4667 108° East 221 254 3,000 -1,140 Descending Potomac TRACON
03:34PM 39.0500 -77.4500 169° South 177 204 2,000 -960 Descending Potomac TRACON
03:35PM 39.0167 -77.4667 201° Southwest 153 176 1,100 -840 Descending Potomac TRACON
03:37PM 38.9474 -77.4599 159° South  Level Estimated
03:44PM 38.9474 -77.4599 159° South  Level Estimated
03:45PM 38.9474 -77.4599 159° South  Level Estimated
03:46PM 38.9474 -77.4599 159° South  Level Estimated